Time;durP1;ratioP1;P1;durP2;ratioP2;P2;SDS_P1;SDS_P2;PMS_P1;PMS_P2;Temp;Humidity;BMP_temperature;BMP_pressure;BME280_temperature;BME280_humidity;BME280_pressure;Samples;Min_cycle;Max_cycle;Signal;HPM_P1;HPM_P2
2022/07/20 00:01:11;;;;;;;;;27.75;26.50;;;;;28.71;44.80;101297.53;5110248;27;49808;-75
2022/07/20 00:03:36;;;;;;;;;29.75;27.50;;;;;28.73;44.40;101281.25;5094194;27;50466;-74
2022/07/20 00:06:02;;;;;;;;;25.50;24.00;;;;;28.62;44.54;101276.34;5094400;27;49679;-77
2022/07/20 00:11:20;;;;;;;;;30.00;29.75;;;;;28.63;44.73;101301.53;5094327;27;49658;-73
2022/07/20 00:13:57;;;;;;;;;29.25;27.00;;;;;28.61;44.28;101306.13;5093123;27;49901;-71
2022/07/20 00:16:24;;;;;;;;;29.50;26.25;;;;;28.63;44.38;101315.03;5094243;27;49604;-76
2022/07/20 00:18:50;;;;;;;;;26.00;25.50;;;;;28.63;45.41;101321.31;5094196;27;49757;-75
2022/07/20 00:21:16;;;;;;;;;26.50;26.50;;;;;28.60;47.21;101347.59;5102399;27;49754;-76
2022/07/20 00:23:42;;;;;;;;;26.00;25.75;;;;;28.60;48.49;101369.22;5114419;27;50926;-77
2022/07/20 00:26:08;;;;;;;;;36.75;31.25;;;;;28.55;48.97;101382.91;5114690;27;49559;-77
2022/07/20 00:28:34;;;;;;;;;28.00;27.50;;;;;28.57;48.16;101417.94;5114397;27;49765;-76
2022/07/20 00:30:59;;;;;;;;;30.75;29.25;;;;;28.54;48.92;101423.50;5114795;27;49834;-76
2022/07/20 00:33:24;;;;;;;;;30.25;27.50;;;;;28.51;49.38;101454.22;5114195;27;50617;-75
2022/07/20 00:35:50;;;;;;;;;29.25;25.50;;;;;28.47;49.21;101484.97;5114340;27;49671;-76
2022/07/20 00:38:15;;;;;;;;;28.50;25.50;;;;;28.42;49.50;101489.72;5114417;27;49658;-76
2022/07/20 00:40:41;;;;;;;;;26.50;23.00;;;;;28.33;49.62;101484.69;5114792;27;49872;-72
2022/07/20 00:43:06;;;;;;;;;26.50;25.75;;;;;28.33;49.97;101492.78;5113899;27;49715;-72
2022/07/20 00:45:32;;;;;;;;;29.75;28.00;;;;;28.21;50.84;101475.25;5114410;27;49748;-76
2022/07/20 00:47:57;;;;;;;;;30.50;29.00;;;;;28.15;52.33;101456.59;5114391;27;49731;-76
2022/07/20 00:50:22;;;;;;;;;30.00;29.00;;;;;27.97;52.40;101425.84;5114689;27;49519;-73
2022/07/20 00:52:48;;;;;;;;;48.00;36.50;;;;;27.89;63.34;101411.78;5114040;27;49592;-72
2022/07/20 00:55:13;;;;;;;;;38.00;34.50;;;;;27.14;90.66;101362.66;5114096;27;49576;-71
2022/07/20 00:57:39;;;;;;;;;34.00;31.50;;;;;26.52;78.82;101353.22;5114098;27;49697;-64
2022/07/20 01:00:07;;;;;;;;;51.50;39.75;;;;;26.21;79.18;101364.16;5112592;27;49765;-75
2022/07/20 01:02:33;;;;;;;;;48.50;40.25;;;;;25.63;86.58;101358.00;5113790;27;49719;-65
2022/07/20 01:04:58;;;;;;;;;60.25;49.25;;;;;25.09;99.69;101354.31;5113676;27;49763;-63
2022/07/20 01:07:24;;;;;;;;;55.25;45.50;;;;;25.17;84.70;101354.06;5105075;27;50940;-64
2022/07/20 01:09:50;;;;;;;;;59.50;49.50;;;;;25.24;82.23;101349.38;5091672;27;49810;-63
2022/07/20 01:12:16;;;;;;;;;60.75;49.25;;;;;25.26;84.31;101340.34;5092097;27;50551;-64
2022/07/20 01:14:41;;;;;;;;;62.50;49.25;;;;;25.20;82.02;101299.38;5092984;27;49729;-64
2022/07/20 01:17:07;;;;;;;;;53.00;44.25;;;;;25.24;78.85;101303.69;5093232;27;49620;-64
2022/07/20 01:19:32;;;;;;;;;56.00;44.25;;;;;25.16;76.54;101290.50;5093504;27;49762;-63
2022/07/20 01:21:57;;;;;;;;;61.00;48.50;;;;;24.63;78.74;101257.19;5106497;27;49851;-63
2022/07/20 01:24:23;;;;;;;;;50.75;43.00;;;;;24.77;77.47;101284.50;5113533;27;49649;-62
2022/07/20 01:26:48;;;;;;;;;61.75;49.00;;;;;24.67;78.01;101296.44;5116718;27;49743;-65
2022/07/20 01:29:14;;;;;;;;;55.50;45.75;;;;;24.54;77.30;101322.78;5117635;27;50210;-63
2022/07/20 01:31:40;;;;;;;;;61.25;50.75;;;;;24.57;80.52;101327.16;5106225;27;49614;-64
2022/07/20 01:34:06;;;;;;;;;56.25;45.75;;;;;24.61;78.71;101326.13;5096564;27;49648;-63
2022/07/20 01:36:32;;;;;;;;;63.75;52.00;;;;;24.65;75.53;101338.56;5096651;27;49777;-63
2022/07/20 01:38:57;;;;;;;;;60.75;48.75;;;;;24.61;80.14;101334.19;5101481;27;49677;-63
2022/07/20 01:41:23;;;;;;;;;58.00;47.25;;;;;24.60;78.62;101294.84;5100083;27;51182;-68
2022/07/20 01:43:48;;;;;;;;;66.50;51.50;;;;;24.71;77.21;101301.69;5116054;27;49801;-67
2022/07/20 01:46:13;;;;;;;;;65.00;52.75;;;;;24.75;77.19;101314.09;5099686;27;50375;-70
2022/07/20 01:48:39;;;;;;;;;67.25;54.75;;;;;24.80;76.20;101320.22;5097621;27;49751;-68
2022/07/20 01:51:05;;;;;;;;;66.25;53.00;;;;;24.84;76.22;101321.00;5097363;27;50505;-63
2022/07/20 01:53:30;;;;;;;;;60.50;49.00;;;;;24.82;74.12;101323.75;5096259;27;49541;-72
2022/07/20 01:55:56;;;;;;;;;66.75;52.00;;;;;24.77;72.58;101317.59;5096505;27;50012;-68
2022/07/20 01:58:21;;;;;;;;;65.50;50.75;;;;;24.59;73.61;101330.69;5096278;27;49649;-65
2022/07/20 02:00:48;;;;;;;;;66.50;53.75;;;;;24.66;73.95;101340.31;5098068;27;49753;-63
2022/07/20 02:03:13;;;;;;;;;69.00;55.25;;;;;24.73;74.54;101353.53;5106505;27;49696;-69
2022/07/20 02:05:39;;;;;;;;;65.00;52.25;;;;;24.80;73.67;101378.38;5096150;27;49853;-63
2022/07/20 02:08:04;;;;;;;;;60.00;49.75;;;;;24.89;73.97;101418.41;5095273;27;49649;-75
2022/07/20 02:10:30;;;;;;;;;64.50;51.50;;;;;24.98;73.38;101447.69;5095643;27;49790;-74
2022/07/20 02:12:55;;;;;;;;;54.25;46.00;;;;;25.01;72.08;101454.81;5101212;27;49815;-65
2022/07/20 02:18:07;;;;;;;;;63.75;51.50;;;;;25.04;69.90;101425.19;5116558;27;49772;-64
2022/07/20 02:20:33;;;;;;;;;63.00;50.75;;;;;24.98;70.39;101393.09;5114700;27;50604;-63
2022/07/20 02:22:58;;;;;;;;;65.75;52.75;;;;;24.93;69.78;101416.53;5099066;27;49671;-67
2022/07/20 02:25:24;;;;;;;;;62.25;50.00;;;;;24.92;70.67;101429.09;5096048;27;49834;-75
2022/07/20 02:27:49;;;;;;;;;62.25;51.50;;;;;24.96;70.62;101432.56;5095905;27;49862;-69
2022/07/20 02:30:15;;;;;;;;;60.50;48.75;;;;;24.97;71.12;101440.56;5095348;27;55840;-64
2022/07/20 02:32:40;;;;;;;;;66.25;51.75;;;;;25.00;70.29;101427.06;5095733;27;49804;-75
2022/07/20 02:35:06;;;;;;;;;65.00;50.75;;;;;25.02;71.23;101419.00;5108829;27;49884;-64
2022/07/20 02:37:31;;;;;;;;;69.50;54.75;;;;;25.06;70.51;101428.72;5115697;27;49644;-64
2022/07/20 02:39:56;;;;;;;;;67.75;54.50;;;;;25.05;70.23;101453.81;5100149;27;56450;-71
2022/07/20 02:42:22;;;;;;;;;63.00;52.25;;;;;25.06;70.49;101451.09;5095416;27;49750;-71
2022/07/20 02:44:47;;;;;;;;;65.00;51.50;;;;;25.08;70.47;101438.47;5095624;27;49702;-74
2022/07/20 02:47:12;;;;;;;;;64.00;51.00;;;;;25.07;70.33;101434.03;5095688;27;49841;-71
2022/07/20 02:49:38;;;;;;;;;63.75;49.50;;;;;25.14;70.04;101445.50;5113832;27;50614;-65
2022/07/20 02:52:03;;;;;;;;;64.50;51.25;;;;;25.11;69.13;101449.16;5115724;27;50061;-64
2022/07/20 02:54:28;;;;;;;;;63.50;52.25;;;;;25.19;68.74;101466.84;5116255;27;49575;-70
2022/07/20 02:56:54;;;;;;;;;65.00;51.75;;;;;25.23;68.76;101473.91;5116036;27;50010;-64
2022/07/20 02:59:19;;;;;;;;;61.75;50.50;;;;;25.26;67.80;101476.50;5114367;27;50586;-63
2022/07/20 03:01:44;;;;;;;;;66.00;52.25;;;;;25.30;67.08;101488.94;5115542;27;49545;-73
2022/07/20 03:04:10;;;;;;;;;67.50;52.75;;;;;25.35;67.61;101512.06;5116112;27;49541;-75
2022/07/20 03:06:35;;;;;;;;;65.75;52.25;;;;;25.37;67.45;101522.75;5115948;27;50031;-65
2022/07/20 03:09:00;;;;;;;;;65.75;53.50;;;;;25.42;67.43;101546.84;5115518;27;50422;-73
2022/07/20 03:11:25;;;;;;;;;61.25;49.75;;;;;25.45;68.16;101538.69;5115924;27;49851;-65
2022/07/20 03:13:51;;;;;;;;;70.00;54.25;;;;;25.44;67.94;101535.09;5115507;27;49870;-68
2022/07/20 03:16:16;;;;;;;;;66.25;54.00;;;;;25.45;67.36;101554.81;5115477;27;49778;-63
2022/07/20 03:18:41;;;;;;;;;67.00;52.75;;;;;25.45;67.79;101557.50;5115590;27;49623;-63
2022/07/20 03:21:07;;;;;;;;;68.25;54.50;;;;;25.18;67.55;101525.09;5115852;27;49751;-63
2022/07/20 03:23:32;;;;;;;;;68.25;54.00;;;;;25.52;67.21;101572.53;5115775;27;49657;-63
2022/07/20 03:25:57;;;;;;;;;54.50;44.25;;;;;25.43;67.56;101543.22;5104695;27;49716;-63
2022/07/20 03:28:23;;;;;;;;;67.75;53.50;;;;;25.49;67.01;101543.94;5115124;27;49730;-63
2022/07/20 03:30:48;;;;;;;;;64.25;51.75;;;;;25.46;66.05;101538.63;5115437;27;49848;-64
2022/07/20 03:33:13;;;;;;;;;67.00;50.75;;;;;25.46;66.69;101546.69;5115542;27;49791;-63
2022/07/20 03:35:39;;;;;;;;;64.00;51.00;;;;;25.48;66.46;101538.56;5115672;27;49854;-65
2022/07/20 03:38:04;;;;;;;;;65.25;51.50;;;;;25.37;66.93;101525.44;5110766;27;50429;-64
2022/07/20 03:40:30;;;;;;;;;65.25;51.75;;;;;25.43;66.81;101527.97;5115340;27;49661;-63
2022/07/20 03:42:55;;;;;;;;;66.50;53.75;;;;;25.47;66.29;101539.50;5115043;27;49874;-64
2022/07/20 03:45:20;;;;;;;;;66.00;53.50;;;;;25.49;66.60;101548.44;5115078;27;49522;-64
2022/07/20 03:47:46;;;;;;;;;61.50;49.00;;;;;25.53;66.84;101550.09;5100482;27;50495;-63
2022/07/20 03:50:11;;;;;;;;;61.50;49.00;;;;;25.52;66.63;101538.47;5094474;27;49777;-64
2022/07/20 03:52:36;;;;;;;;;68.25;55.00;;;;;25.52;67.89;101540.28;5094613;27;49501;-64
2022/07/20 03:55:02;;;;;;;;;60.00;48.25;;;;;25.52;68.24;101551.03;5094666;27;49522;-63
2022/07/20 03:57:27;;;;;;;;;63.00;50.75;;;;;25.57;69.14;101584.03;5104634;27;49584;-64
2022/07/20 03:59:52;;;;;;;;;61.50;48.50;;;;;25.44;70.38;101580.81;5114869;27;49641;-63
2022/07/20 04:02:18;;;;;;;;;71.00;54.25;;;;;25.42;70.52;101592.53;5115223;27;49739;-64
2022/07/20 04:04:43;;;;;;;;;60.50;48.75;;;;;25.35;72.14;101603.44;5115250;27;49769;-64
2022/07/20 04:07:08;;;;;;;;;68.75;52.50;;;;;25.39;72.11;101618.59;5094564;27;55156;-64
2022/07/20 04:09:49;;;;;;;;;64.00;50.75;;;;;25.29;71.86;101610.81;5114904;27;49793;-64
2022/07/20 04:12:18;;;;;;;;;67.00;54.00;;;;;25.28;72.29;101599.16;5114753;27;49666;-64
2022/07/20 04:14:44;;;;;;;;;62.00;50.50;;;;;25.28;73.32;101596.47;5110429;27;49659;-65
2022/07/20 04:17:10;;;;;;;;;56.00;47.25;;;;;25.22;71.77;101574.25;5094388;27;49734;-64
2022/07/20 04:19:36;;;;;;;;;55.00;45.50;;;;;25.18;70.87;101573.44;5094239;27;49758;-63
2022/07/20 04:22:02;;;;;;;;;57.50;46.00;;;;;25.02;70.45;101556.88;5100482;27;49756;-63
2022/07/20 04:24:28;;;;;;;;;56.00;45.25;;;;;24.77;72.72;101545.84;5090165;27;49808;-63
2022/07/20 04:26:53;;;;;;;;;54.25;46.25;;;;;24.76;72.65;101562.00;5114212;27;50445;-64
2022/07/20 04:29:19;;;;;;;;;52.75;42.50;;;;;24.77;71.40;101559.28;5114573;27;49788;-65
2022/07/20 04:31:45;;;;;;;;;46.25;38.75;;;;;24.74;72.80;101545.06;5114646;27;49766;-66
2022/07/20 04:34:10;;;;;;;;;52.75;44.00;;;;;24.50;72.31;101523.25;5114438;27;49722;-64
2022/07/20 04:36:36;;;;;;;;;54.75;45.00;;;;;24.54;73.95;101522.28;5093200;27;52604;-64
2022/07/20 04:39:01;;;;;;;;;55.25;44.75;;;;;24.55;74.92;101517.78;5093987;27;49711;-64
2022/07/20 04:41:26;;;;;;;;;49.00;40.25;;;;;24.26;72.92;101497.00;5099366;27;49946;-62
2022/07/20 04:43:52;;;;;;;;;52.25;43.50;;;;;24.14;76.71;101479.41;5114801;27;49761;-66
2022/07/20 04:46:17;;;;;;;;;55.00;46.00;;;;;24.08;74.60;101466.13;5113120;27;53118;-71
2022/07/20 04:48:42;;;;;;;;;37.50;33.50;;;;;24.06;69.10;101470.66;5106026;27;49927;-64
2022/07/20 04:51:08;;;;;;;;;26.75;25.50;;;;;23.95;72.32;101495.03;5100100;27;49675;-70
2022/07/20 04:53:33;;;;;;;;;45.00;37.50;;;;;24.08;72.10;101506.38;5113124;27;49970;-66
2022/07/20 04:55:59;;;;;;;;;42.50;34.75;;;;;24.13;72.01;101506.28;5113841;27;56911;-68
2022/07/20 04:58:24;;;;;;;;;48.75;39.00;;;;;24.18;72.27;101533.84;5112752;27;49647;-66
2022/07/20 05:00:49;;;;;;;;;40.50;36.00;;;;;24.17;70.48;101537.47;5114057;27;49937;-73
2022/07/20 05:03:15;;;;;;;;;40.00;35.00;;;;;24.06;70.05;101539.50;5117812;27;49673;-64
2022/07/20 05:05:40;;;;;;;;;42.25;36.50;;;;;24.26;72.01;101601.63;5117477;27;51090;-64
2022/07/20 05:08:06;;;;;;;;;32.25;30.00;;;;;24.25;70.01;101605.25;5117792;27;49726;-65
2022/07/20 05:10:31;;;;;;;;;32.75;31.75;;;;;24.07;70.32;101555.56;5116618;27;49973;-70
2022/07/20 05:12:56;;;;;;;;;40.00;32.50;;;;;24.18;68.56;101588.38;5096820;27;49601;-78
2022/07/20 05:15:23;;;;;;;;;31.50;31.00;;;;;24.06;67.19;101558.28;5097176;27;50748;-72
2022/07/20 05:17:49;;;;;;;;;36.25;33.00;;;;;24.07;67.95;101557.38;5097125;27;49686;-69
2022/07/20 05:20:15;;;;;;;;;27.75;27.25;;;;;24.10;68.59;101585.00;5097006;27;49745;-64
2022/07/20 05:22:40;;;;;;;;;24.00;24.00;;;;;23.91;67.15;101551.44;5110635;27;49777;-69
2022/07/20 05:25:06;;;;;;;;;27.00;27.00;;;;;23.87;69.84;101572.09;5115423;27;49733;-69
2022/07/20 05:27:31;;;;;;;;;26.25;26.00;;;;;23.88;67.77;101562.25;5117243;27;49649;-67
2022/07/20 05:29:57;;;;;;;;;30.00;29.00;;;;;23.65;67.84;101538.63;5116456;27;49568;-64
2022/07/20 05:32:22;;;;;;;;;26.75;25.75;;;;;23.68;68.82;101528.72;5109091;27;49654;-64
2022/07/20 05:34:47;;;;;;;;;31.75;30.25;;;;;23.54;69.48;101470.91;5117258;27;50387;-65
2022/07/20 05:37:13;;;;;;;;;33.00;30.50;;;;;23.63;68.03;101460.91;5108922;27;49777;-70
2022/07/20 05:39:38;;;;;;;;;38.25;32.00;;;;;23.59;70.20;101440.44;5107719;27;49704;-69
2022/07/20 05:42:04;;;;;;;;;33.50;30.25;;;;;23.72;71.00;101459.81;5109257;27;49609;-73
2022/07/20 05:44:29;;;;;;;;;35.50;31.25;;;;;23.58;71.48;101461.91;5094888;27;51291;-67
2022/07/20 05:46:55;;;;;;;;;32.00;27.50;;;;;23.84;70.53;101529.28;5114300;27;49602;-69
2022/07/20 05:49:20;;;;;;;;;31.75;29.50;;;;;23.77;70.52;101503.50;5115227;27;49782;-67
2022/07/20 05:51:45;;;;;;;;;34.75;30.75;;;;;23.98;71.04;101543.25;5117294;27;49781;-73
2022/07/20 05:54:11;;;;;;;;;32.50;29.75;;;;;;;;5116588;27;50812;-66
2022/07/20 05:56:36;;;;;;;;;33.75;31.00;;;;;24.12;68.10;101542.03;5117173;27;49784;-70
2022/07/20 05:59:01;;;;;;;;;31.25;27.25;;;;;23.97;68.01;101505.72;5116171;27;50164;-71
2022/07/20 06:01:27;;;;;;;;;30.50;29.25;;;;;24.12;68.20;101524.13;5111051;27;49711;-68
2022/07/20 06:03:52;;;;;;;;;30.50;28.75;;;;;24.22;69.56;101563.28;5094741;27;52595;-70
2022/07/20 06:06:18;;;;;;;;;29.50;28.75;;;;;24.15;67.94;101552.72;5096366;27;49605;-67
2022/07/20 06:08:45;;;;;;;;;37.75;32.75;;;;;23.87;67.96;101518.47;5095271;27;49708;-67
2022/07/20 06:11:11;;;;;;;;;29.50;29.00;;;;;23.83;67.37;101542.69;5096064;27;49785;-73
2022/07/20 06:13:36;;;;;;;;;31.50;30.00;;;;;23.70;67.36;101556.34;5104062;27;50748;-69
2022/07/20 06:16:01;;;;;;;;;37.00;33.00;;;;;23.63;68.22;101562.75;5116693;27;49647;-67
2022/07/20 06:18:27;;;;;;;;;33.00;29.00;;;;;23.59;67.86;101534.25;5116776;27;49823;-73
2022/07/20 06:20:53;;;;;;;;;31.00;29.50;;;;;23.78;67.66;101529.38;5106599;27;49781;-72
2022/07/20 06:23:18;;;;;;;;;35.50;30.75;;;;;23.91;69.19;101543.41;5095736;27;49805;-84
2022/07/20 06:25:44;;;;;;;;;29.50;28.50;;;;;23.88;66.62;101522.03;5115827;27;49590;-74
2022/07/20 06:28:09;;;;;;;;;32.50;29.50;;;;;24.02;65.45;101569.97;5117571;27;49776;-92
2022/07/20 06:30:34;;;;;;;;;31.50;29.75;;;;;24.06;66.05;101598.53;5116695;27;49935;-67
2022/07/20 06:33:00;;;;;;;;;35.00;31.00;;;;;23.98;66.58;101610.28;5099931;27;50321;-67
2022/07/20 06:35:25;;;;;;;;;30.75;28.50;;;;;23.88;65.87;101595.31;5095924;27;49525;-67
2022/07/20 06:37:51;;;;;;;;;33.50;31.50;;;;;23.96;65.77;101620.16;5111600;27;49758;-70
2022/07/20 06:40:16;;;;;;;;;32.00;29.50;;;;;23.88;65.67;101613.19;5116246;27;49803;-71
2022/07/20 06:42:41;;;;;;;;;29.75;26.00;;;;;23.85;65.72;101624.00;5114525;27;50631;-68
2022/07/20 06:45:07;;;;;;;;;25.75;25.25;;;;;23.75;65.38;101623.28;5098173;27;49674;-69
2022/07/20 06:47:32;;;;;;;;;30.75;29.75;;;;;23.69;66.15;101623.41;5096477;27;49663;-68
2022/07/20 06:49:58;;;;;;;;;34.50;30.00;;;;;23.58;66.67;101611.97;5116371;27;49749;-68
2022/07/20 06:52:23;;;;;;;;;21.25;17.25;;;;;23.50;66.48;101587.13;5114428;27;50523;-71
2022/07/20 06:54:49;;;;;;;;;28.00;26.50;;;;;23.59;67.51;101603.06;5116064;27;49767;-69
2022/07/20 06:57:14;;;;;;;;;27.50;23.50;;;;;23.52;67.38;101593.34;5116247;27;49811;-68
2022/07/20 06:59:40;;;;;;;;;29.75;28.25;;;;;23.47;68.07;101598.78;5114353;27;49856;-67
2022/07/20 07:02:06;;;;;;;;;29.50;25.25;;;;;23.50;67.65;101593.38;5115576;27;50253;-73
2022/07/20 07:04:32;;;;;;;;;28.50;28.00;;;;;23.46;67.14;101588.13;5111930;27;49687;-67
2022/07/20 07:06:58;;;;;;;;;33.25;29.75;;;;;23.28;66.51;101554.50;5095554;27;49622;-76
2022/07/20 07:09:24;;;;;;;;;26.75;25.25;;;;;23.31;65.91;101549.09;5095739;27;49931;-71
2022/07/20 07:11:50;;;;;;;;;23.75;21.25;;;;;23.48;65.94;101583.59;5098592;27;49731;-64
2022/07/20 07:14:15;;;;;;;;;28.00;27.00;;;;;23.19;65.99;101557.38;5094956;27;49775;-79
2022/07/20 07:16:40;;;;;;;;;22.25;21.75;;;;;23.30;65.52;101566.97;5099219;27;49869;-72
2022/07/20 07:19:06;;;;;;;;;25.75;25.75;;;;;23.46;66.09;101596.16;5104218;27;49760;-67
2022/07/20 07:21:32;;;;;;;;;31.75;28.25;;;;;23.47;66.63;101606.84;5114129;27;50441;-72
2022/07/20 07:23:58;;;;;;;;;26.75;26.75;;;;;23.28;67.51;101613.44;5110020;27;49671;-74
2022/07/20 07:26:23;;;;;;;;;29.50;28.25;;;;;23.38;67.13;101617.72;5106401;27;49790;-72
2022/07/20 07:28:49;;;;;;;;;25.00;25.00;;;;;23.53;66.87;101632.63;5108956;27;49961;-64
2022/07/20 07:31:15;;;;;;;;;26.50;26.50;;;;;23.53;67.11;101609.38;5094545;27;49644;-68
2022/07/20 07:33:41;;;;;;;;;26.25;25.50;;;;;23.39;66.74;101601.63;5088013;27;49700;-71
2022/07/20 07:36:07;;;;;;;;;30.25;28.00;;;;;23.44;67.59;101609.56;5085993;27;49742;-64
2022/07/20 07:38:32;;;;;;;;;26.75;24.75;;;;;23.46;67.25;101623.84;5112526;27;49921;-61
2022/07/20 07:40:58;;;;;;;;;27.50;24.50;;;;;23.44;67.29;101620.28;5115044;27;49811;-67
2022/07/20 07:43:23;;;;;;;;;32.75;29.25;;;;;23.43;67.32;101619.38;5094735;27;49480;-69
2022/07/20 07:45:49;;;;;;;;;26.50;25.00;;;;;23.61;67.21;101658.41;5091781;27;49751;-65
2022/07/20 07:48:14;;;;;;;;;30.75;29.75;;;;;23.55;66.63;101649.56;5092710;27;49749;-69
2022/07/20 07:50:42;;;;;;;;;28.75;27.25;;;;;23.79;67.15;101667.88;5093728;27;51254;-69
2022/07/20 07:53:07;;;;;;;;;31.50;27.50;;;;;23.66;67.23;101631.53;5111601;27;49741;-68
2022/07/20 07:55:37;;;;;;;;;33.25;30.00;;;;;23.98;66.50;101673.78;5115032;27;50183;-66
2022/07/20 07:58:03;;;;;;;;;33.75;29.25;;;;;24.06;65.86;101662.88;5113723;27;49767;-69
2022/07/20 08:00:29;;;;;;;;;29.00;27.50;;;;;24.27;66.21;101671.38;5108734;27;50583;-69
2022/07/20 08:02:55;;;;;;;;;28.00;27.00;;;;;24.15;65.87;101635.88;5102455;27;49812;-70
2022/07/20 08:05:21;;;;;;;;;23.50;23.50;;;;;24.50;65.92;101665.50;5093366;27;49918;-71
2022/07/20 08:07:47;;;;;;;;;31.25;29.75;;;;;24.38;65.70;101625.53;5079733;27;49799;-79
2022/07/20 08:10:12;;;;;;;;;28.00;26.50;;;;;24.56;64.46;101664.50;5093997;27;49739;-66
2022/07/20 08:12:37;;;;;;;;;29.75;27.25;;;;;24.55;64.15;101644.84;5093146;27;49896;-65
2022/07/20 08:15:04;;;;;;;;;28.50;25.25;;;;;24.76;64.50;101659.53;5088503;27;49877;-64
2022/07/20 08:17:30;;;;;;;;;28.50;26.25;;;;;25.00;62.97;101665.25;5090467;27;49975;-66
2022/07/20 08:19:55;;;;;;;;;29.50;28.25;;;;;25.20;62.17;101671.06;5091466;27;50440;-66
2022/07/20 08:22:21;;;;;;;;;24.25;23.50;;;;;25.29;60.08;101684.25;5093819;27;49676;-65
2022/07/20 08:24:46;;;;;;;;;26.75;24.00;;;;;25.28;60.01;101677.09;5093806;27;49775;-67
2022/07/20 08:27:11;;;;;;;;;24.75;23.75;;;;;25.37;60.90;101692.09;5094397;27;49680;-66
2022/07/20 08:29:37;;;;;;;;;31.75;28.75;;;;;25.30;59.70;101685.13;5112368;27;50356;-67
2022/07/20 08:32:03;;;;;;;;;21.75;21.75;;;;;25.45;60.38;101683.84;5114708;27;49694;-65
2022/07/20 08:34:28;;;;;;;;;23.00;21.75;;;;;25.57;58.93;101672.75;5114345;27;49545;-69
2022/07/20 08:36:53;;;;;;;;;25.75;24.00;;;;;25.56;59.77;101669.19;5114534;27;49559;-65
2022/07/20 08:39:19;;;;;;;;;23.00;23.00;;;;;25.63;58.65;101675.28;5114313;27;51082;-66
2022/07/20 08:41:46;;;;;;;;;23.25;22.25;;;;;25.64;57.97;101680.63;5105643;27;49848;-65
2022/07/20 08:44:11;;;;;;;;;25.25;22.50;;;;;25.64;58.10;101683.31;5108396;27;49953;-65
2022/07/20 08:46:37;;;;;;;;;25.25;24.00;;;;;25.60;58.85;101678.06;5100512;27;49714;-64
2022/07/20 08:49:03;;;;;;;;;25.25;24.25;;;;;25.73;58.27;101684.91;5091772;27;49873;-66
2022/07/20 08:51:29;;;;;;;;;24.25;23.75;;;;;25.53;57.42;101665.69;5078881;27;49744;-66
2022/07/20 08:53:56;;;;;;;;;25.75;24.75;;;;;25.52;57.67;101680.06;5093486;27;49670;-66
2022/07/20 08:56:22;;;;;;;;;19.75;18.75;;;;;25.48;57.87;101698.09;5091834;27;49978;-66
2022/07/20 08:58:47;;;;;;;;;19.75;18.00;;;;;25.34;57.31;101686.81;5092710;27;49724;-67
2022/07/20 09:01:17;;;;;;;;;20.00;19.75;;;;;25.44;57.24;101700.88;5092834;27;49596;-65
2022/07/20 09:03:46;;;;;;;;;17.00;16.25;;;;;25.43;57.07;101685.69;5091625;27;49821;-65
2022/07/20 09:06:11;;;;;;;;;19.75;18.25;;;;;25.49;57.13;101690.91;5090434;27;50084;-66
2022/07/20 09:09:04;;;;;;;;;15.50;15.50;;;;;25.37;57.20;101682.22;5105751;27;51089;-72
2022/07/20 09:11:31;;;;;;;;;17.75;16.75;;;;;25.39;56.67;101682.22;5091587;27;49927;-66
2022/07/20 09:13:57;;;;;;;;;14.50;12.75;;;;;25.44;57.45;101680.25;5092963;27;49778;-65
2022/07/20 09:16:42;;;;;;;;;17.25;17.00;;;;;25.48;56.88;101692.72;5093440;27;49699;-65
2022/07/20 09:19:08;;;;;;;;;14.50;13.50;;;;;25.57;56.44;101675.44;5090134;27;50662;-64
2022/07/20 09:21:34;;;;;;;;;15.25;12.50;;;;;25.70;56.78;101668.84;5092259;27;49668;-73
2022/07/20 09:24:04;;;;;;;;;9.25;9.25;;;;;25.93;56.63;101670.88;5093291;27;49707;-70
2022/07/20 09:26:31;;;;;;;;;14.00;13.00;;;;;26.07;55.00;101670.50;5093437;27;49606;-73
2022/07/20 09:28:57;;;;;;;;;12.50;12.50;;;;;26.10;54.71;101655.16;5091562;27;51448;-64
2022/07/20 09:31:26;;;;;;;;;13.00;13.00;;;;;26.18;54.28;101689.91;5088451;27;49822;-64
2022/07/20 09:34:12;;;;;;;;;12.75;11.00;;;;;26.22;54.68;101672.72;5092359;27;50026;-63
2022/07/20 09:36:41;;;;;;;;;10.50;10.50;;;;;26.12;54.29;101687.38;5093299;27;49883;-63
2022/07/20 09:39:13;;;;;;;;;8.25;8.25;;;;;26.29;53.80;101674.31;5089199;27;50632;-66
2022/07/20 09:41:40;;;;;;;;;4.25;4.00;;;;;26.26;53.40;101652.88;5087438;27;49865;-64
2022/07/20 09:44:10;;;;;;;;;7.50;7.50;;;;;26.35;53.58;101675.97;5091576;27;49985;-64
2022/07/20 09:46:38;;;;;;;;;11.50;10.75;;;;;26.24;53.66;101660.09;5092946;27;49894;-66
2022/07/20 09:49:10;;;;;;;;;7.75;7.75;;;;;26.20;54.73;101664.69;5095730;27;49842;-64
2022/07/20 09:51:41;;;;;;;;;12.50;9.00;;;;;25.96;54.49;101669.00;5101441;27;49755;-65
2022/07/20 09:54:13;;;;;;;;;8.50;8.50;;;;;25.80;54.10;101656.91;5096419;27;49977;-64
2022/07/20 09:56:40;;;;;;;;;31.50;30.75;;;;;25.90;54.65;101695.19;5096483;27;49982;-68
2022/07/20 09:59:09;;;;;;;;;43.50;36.50;;;;;25.84;55.36;101693.53;5095550;27;50341;-69
2022/07/20 10:01:40;;;;;;;;;12.00;11.00;;;;;25.79;54.42;101690.13;5097079;27;49899;-68
2022/07/20 10:04:09;;;;;;;;;12.00;12.00;;;;;25.57;54.93;101670.06;5095930;27;49940;-64
2022/07/20 10:06:36;;;;;;;;;12.75;12.75;;;;;25.62;55.68;101668.13;5096057;27;49730;-67
2022/07/20 10:09:04;;;;;;;;;9.50;9.50;;;;;25.73;55.55;101692.97;5097536;27;49943;-63
2022/07/20 10:11:30;;;;;;;;;8.25;8.25;;;;;25.74;55.03;101688.47;5103059;27;49993;-61
2022/07/20 10:13:58;;;;;;;;;10.00;8.25;;;;;25.55;55.33;101669.22;5095853;27;49834;-62
2022/07/20 10:16:34;;;;;;;;;10.00;10.00;;;;;25.72;55.85;101693.88;5096370;27;49710;-66
2022/07/20 10:19:00;;;;;;;;;6.50;6.50;;;;;25.55;55.88;101694.31;5095932;27;50835;-61
2022/07/20 10:21:42;;;;;;;;;11.75;9.25;;;;;25.55;55.60;101690.72;5096002;27;49529;-62
2022/07/20 10:24:13;;;;;;;;;11.00;9.50;;;;;25.58;55.62;101686.19;5096016;27;49629;-69
2022/07/20 10:26:39;;;;;;;;;7.00;7.00;;;;;25.44;56.47;101656.06;5096155;27;49839;-68
2022/07/20 10:29:04;;;;;;;;;10.75;9.00;;;;;25.61;55.41;101683.41;5095511;27;50840;-68
2022/07/20 10:31:55;;;;;;;;;7.00;6.50;;;;;25.87;55.85;101697.97;5096126;27;49821;-67
2022/07/20 10:34:37;;;;;;;;;9.00;8.50;;;;;26.17;55.07;101689.03;5095812;27;49845;-68
2022/07/20 10:37:20;;;;;;;;;8.00;7.25;;;;;26.42;54.03;101693.69;5095852;27;49865;-68
2022/07/20 10:39:47;;;;;;;;;8.00;7.50;;;;;26.45;53.52;101667.59;5095704;27;50697;-68
2022/07/20 10:42:27;;;;;;;;;10.25;10.25;;;;;26.60;53.87;101694.94;5095602;27;49815;-66
2022/07/20 10:44:54;;;;;;;;;8.25;8.25;;;;;26.52;53.24;101676.31;5095416;27;49682;-69
2022/07/20 10:47:50;;;;;;;;;8.00;8.00;;;;;26.67;52.90;101693.84;5095526;27;49729;-70
2022/07/20 10:50:32;;;;;;;;;11.50;8.25;;;;;26.52;53.41;101674.50;5086335;27;50463;-71
2022/07/20 10:53:20;;;;;;;;;7.75;7.50;;;;;26.65;53.30;101691.19;5095495;27;49868;-74
2022/07/20 10:55:58;;;;;;;;;9.50;9.00;;;;;26.39;52.81;101672.25;5095185;27;49675;-67
2022/07/20 10:58:31;;;;;;;;;11.25;10.75;;;;;26.37;53.73;101675.00;5094895;27;49611;-69
2022/07/20 11:00:57;;;;;;;;;8.00;8.00;;;;;26.37;52.78;101703.69;5095126;27;51623;-68
2022/07/20 11:03:27;;;;;;;;;9.50;9.50;;;;;26.15;53.64;101680.13;5095542;27;49578;-65
2022/07/20 11:06:04;;;;;;;;;9.00;8.75;;;;;26.18;53.27;101708.75;5094210;27;49840;-68
2022/07/20 11:08:30;;;;;;;;;8.00;8.00;;;;;26.16;53.35;101718.69;5095495;27;49952;-67
2022/07/20 11:10:56;;;;;;;;;10.50;9.75;;;;;26.19;53.74;101722.16;5094712;27;50518;-68
2022/07/20 11:13:22;;;;;;;;;8.50;7.50;;;;;26.25;53.47;101721.09;5095043;27;49757;-66
2022/07/20 11:15:50;;;;;;;;;9.75;8.50;;;;;26.31;53.86;101717.34;5095287;27;49522;-66